sensor_id;sensor_type;location;lat;lon;timestamp;temperature;humidity
18335;DHT22;9293;49.524;10.964;2023-04-10T00:00:36;5.10;99.90
18335;DHT22;9293;49.524;10.964;2023-04-10T00:03:06;5.10;99.90
18335;DHT22;9293;49.524;10.964;2023-04-10T00:05:34;5.00;99.90
18335;DHT22;9293;49.524;10.964;2023-04-10T00:08:03;5.00;99.90
18335;DHT22;9293;49.524;10.964;2023-04-10T00:10:31;4.90;99.90
18335;DHT22;9293;49.524;10.964;2023-04-10T00:13:00;4.70;99.90
18335;DHT22;9293;49.524;10.964;2023-04-10T00:15:30;4.60;99.90
18335;DHT22;9293;49.524;10.964;2023-04-10T00:17:58;4.60;99.90
18335;DHT22;9293;49.524;10.964;2023-04-10T00:20:26;4.70;99.90
18335;DHT22;9293;49.524;10.964;2023-04-10T00:22:54;4.80;99.90
18335;DHT22;9293;49.524;10.964;2023-04-10T00:25:23;4.70;99.90
18335;DHT22;9293;49.524;10.964;2023-04-10T00:27:54;4.70;99.90
18335;DHT22;9293;49.524;10.964;2023-04-10T00:30:22;4.50;99.90
18335;DHT22;9293;49.524;10.964;2023-04-10T00:32:50;4.40;99.90
18335;DHT22;9293;49.524;10.964;2023-04-10T00:35:19;4.20;99.90
18335;DHT22;9293;49.524;10.964;2023-04-10T00:37:47;4.20;99.90
18335;DHT22;9293;49.524;10.964;2023-04-10T00:40:16;4.20;99.90
18335;DHT22;9293;49.524;10.964;2023-04-10T00:42:44;4.20;99.90
18335;DHT22;9293;49.524;10.964;2023-04-10T00:45:13;4.20;99.90
18335;DHT22;9293;49.524;10.964;2023-04-10T00:47:41;4.20;99.90
18335;DHT22;9293;49.524;10.964;2023-04-10T00:50:09;4.20;99.90
18335;DHT22;9293;49.524;10.964;2023-04-10T00:52:37;4.20;99.90
18335;DHT22;9293;49.524;10.964;2023-04-10T00:55:05;4.10;99.90
18335;DHT22;9293;49.524;10.964;2023-04-10T00:57:34;3.90;99.90
18335;DHT22;9293;49.524;10.964;2023-04-10T01:00:02;3.80;99.90
18335;DHT22;9293;49.524;10.964;2023-04-10T01:02:31;3.80;99.90
18335;DHT22;9293;49.524;10.964;2023-04-10T01:05:00;3.80;99.90
18335;DHT22;9293;49.524;10.964;2023-04-10T01:13:06;4.10;99.90
18335;DHT22;9293;49.524;10.964;2023-04-10T01:15:37;4.10;99.90
18335;DHT22;9293;49.524;10.964;2023-04-10T01:18:10;4.00;99.90
18335;DHT22;9293;49.524;10.964;2023-04-10T01:20:43;4.00;99.90
18335;DHT22;9293;49.524;10.964;2023-04-10T01:25:42;3.90;99.90
18335;DHT22;9293;49.524;10.964;2023-04-10T01:30:48;3.90;99.90
18335;DHT22;9293;49.524;10.964;2023-04-10T01:33:19;3.70;99.90
18335;DHT22;9293;49.524;10.964;2023-04-10T01:35:54;3.60;99.90
18335;DHT22;9293;49.524;10.964;2023-04-10T01:38:24;3.50;99.90
18335;DHT22;9293;49.524;10.964;2023-04-10T01:40:55;3.50;99.90
18335;DHT22;9293;49.524;10.964;2023-04-10T01:43:26;3.50;99.90
18335;DHT22;9293;49.524;10.964;2023-04-10T01:45:56;3.40;99.90
18335;DHT22;9293;49.524;10.964;2023-04-10T01:48:25;3.30;99.90
18335;DHT22;9293;49.524;10.964;2023-04-10T01:50:55;3.20;99.90
18335;DHT22;9293;49.524;10.964;2023-04-10T01:53:24;3.20;99.90
18335;DHT22;9293;49.524;10.964;2023-04-10T01:55:52;3.10;99.90
18335;DHT22;9293;49.524;10.964;2023-04-10T01:58:21;3.10;99.90
18335;DHT22;9293;49.524;10.964;2023-04-10T02:00:52;3.00;99.90
18335;DHT22;9293;49.524;10.964;2023-04-10T02:03:21;3.00;99.90
18335;DHT22;9293;49.524;10.964;2023-04-10T02:06:00;3.00;99.90
18335;DHT22;9293;49.524;10.964;2023-04-10T02:08:38;3.00;99.90
18335;DHT22;9293;49.524;10.964;2023-04-10T02:11:20;3.00;99.90
18335;DHT22;9293;49.524;10.964;2023-04-10T02:13:54;3.00;99.90
18335;DHT22;9293;49.524;10.964;2023-04-10T02:16:26;3.00;99.90
18335;DHT22;9293;49.524;10.964;2023-04-10T02:18:56;3.10;99.90
18335;DHT22;9293;49.524;10.964;2023-04-10T02:21:25;3.00;99.90
18335;DHT22;9293;49.524;10.964;2023-04-10T02:23:55;3.00;99.90
18335;DHT22;9293;49.524;10.964;2023-04-10T02:26:24;3.00;99.90
18335;DHT22;9293;49.524;10.964;2023-04-10T02:28:52;2.90;99.90
18335;DHT22;9293;49.524;10.964;2023-04-10T02:31:20;2.80;99.90
18335;DHT22;9293;49.524;10.964;2023-04-10T02:33:48;2.80;99.90
18335;DHT22;9293;49.524;10.964;2023-04-10T02:36:17;2.90;99.90
18335;DHT22;9293;49.524;10.964;2023-04-10T02:38:45;2.90;99.90
18335;DHT22;9293;49.524;10.964;2023-04-10T02:41:13;2.80;99.90
18335;DHT22;9293;49.524;10.964;2023-04-10T02:43:41;2.70;99.90
18335;DHT22;9293;49.524;10.964;2023-04-10T02:46:10;2.60;99.90
18335;DHT22;9293;49.524;10.964;2023-04-10T02:48:38;2.60;99.90
18335;DHT22;9293;49.524;10.964;2023-04-10T02:51:07;2.70;99.90
18335;DHT22;9293;49.524;10.964;2023-04-10T02:53:35;2.70;99.90
18335;DHT22;9293;49.524;10.964;2023-04-10T02:56:04;2.80;99.90
18335;DHT22;9293;49.524;10.964;2023-04-10T02:58:33;2.80;99.90
18335;DHT22;9293;49.524;10.964;2023-04-10T03:01:04;2.90;99.90
18335;DHT22;9293;49.524;10.964;2023-04-10T03:03:40;3.00;99.90
18335;DHT22;9293;49.524;10.964;2023-04-10T03:06:09;3.10;99.90
18335;DHT22;9293;49.524;10.964;2023-04-10T03:08:39;3.10;99.90
18335;DHT22;9293;49.524;10.964;2023-04-10T03:11:07;3.20;99.90
18335;DHT22;9293;49.524;10.964;2023-04-10T03:13:36;3.00;99.90
18335;DHT22;9293;49.524;10.964;2023-04-10T03:16:04;2.90;99.90
18335;DHT22;9293;49.524;10.964;2023-04-10T03:18:33;2.80;99.90
18335;DHT22;9293;49.524;10.964;2023-04-10T03:21:01;2.80;99.90
18335;DHT22;9293;49.524;10.964;2023-04-10T03:23:29;2.80;99.90
18335;DHT22;9293;49.524;10.964;2023-04-10T03:25:57;2.80;99.90
18335;DHT22;9293;49.524;10.964;2023-04-10T03:28:28;2.90;99.90
18335;DHT22;9293;49.524;10.964;2023-04-10T03:30:56;2.90;99.90
18335;DHT22;9293;49.524;10.964;2023-04-10T03:33:31;2.90;99.90
18335;DHT22;9293;49.524;10.964;2023-04-10T03:36:03;3.00;99.90
18335;DHT22;9293;49.524;10.964;2023-04-10T03:38:32;3.10;99.90
18335;DHT22;9293;49.524;10.964;2023-04-10T03:41:00;3.10;99.90
18335;DHT22;9293;49.524;10.964;2023-04-10T03:43:30;3.10;99.90
18335;DHT22;9293;49.524;10.964;2023-04-10T03:46:01;3.10;99.90
18335;DHT22;9293;49.524;10.964;2023-04-10T03:48:29;3.10;99.90
18335;DHT22;9293;49.524;10.964;2023-04-10T03:50:57;3.00;99.90
18335;DHT22;9293;49.524;10.964;2023-04-10T03:53:25;2.80;99.90
18335;DHT22;9293;49.524;10.964;2023-04-10T03:55:54;2.70;99.90
18335;DHT22;9293;49.524;10.964;2023-04-10T03:58:23;2.70;99.90
18335;DHT22;9293;49.524;10.964;2023-04-10T04:00:53;2.80;99.90
18335;DHT22;9293;49.524;10.964;2023-04-10T04:03:35;2.80;99.90
18335;DHT22;9293;49.524;10.964;2023-04-10T04:06:22;2.90;99.90
18335;DHT22;9293;49.524;10.964;2023-04-10T04:09:08;2.80;99.90
18335;DHT22;9293;49.524;10.964;2023-04-10T04:11:44;2.90;99.90
18335;DHT22;9293;49.524;10.964;2023-04-10T04:14:32;2.90;99.90
18335;DHT22;9293;49.524;10.964;2023-04-10T04:17:20;2.80;99.90
18335;DHT22;9293;49.524;10.964;2023-04-10T04:20:08;2.70;99.90
18335;DHT22;9293;49.524;10.964;2023-04-10T04:22:42;2.50;99.90
18335;DHT22;9293;49.524;10.964;2023-04-10T04:25:32;2.50;99.90
18335;DHT22;9293;49.524;10.964;2023-04-10T04:28:20;2.50;99.90
18335;DHT22;9293;49.524;10.964;2023-04-10T04:31:11;2.60;99.90
18335;DHT22;9293;49.524;10.964;2023-04-10T04:33:58;2.60;99.90
18335;DHT22;9293;49.524;10.964;2023-04-10T04:36:46;2.50;99.90
18335;DHT22;9293;49.524;10.964;2023-04-10T04:39:46;2.50;99.90
18335;DHT22;9293;49.524;10.964;2023-04-10T04:42:45;2.50;99.90
18335;DHT22;9293;49.524;10.964;2023-04-10T04:45:22;2.50;99.90
18335;DHT22;9293;49.524;10.964;2023-04-10T04:48:23;2.60;99.90
18335;DHT22;9293;49.524;10.964;2023-04-10T04:50:59;2.50;99.90
18335;DHT22;9293;49.524;10.964;2023-04-10T04:53:50;2.40;99.90
18335;DHT22;9293;49.524;10.964;2023-04-10T04:56:45;2.50;99.90
18335;DHT22;9293;49.524;10.964;2023-04-10T04:59:40;2.50;99.90
18335;DHT22;9293;49.524;10.964;2023-04-10T05:02:21;2.60;99.90
18335;DHT22;9293;49.524;10.964;2023-04-10T05:05:05;2.50;99.90
18335;DHT22;9293;49.524;10.964;2023-04-10T05:07:44;2.50;99.90
18335;DHT22;9293;49.524;10.964;2023-04-10T05:10:36;2.60;99.90
18335;DHT22;9293;49.524;10.964;2023-04-10T05:13:30;2.70;99.90
18335;DHT22;9293;49.524;10.964;2023-04-10T05:16:15;2.80;99.90
18335;DHT22;9293;49.524;10.964;2023-04-10T05:18:49;2.90;99.90
18335;DHT22;9293;49.524;10.964;2023-04-10T05:21:39;2.90;99.90
18335;DHT22;9293;49.524;10.964;2023-04-10T05:24:31;3.00;99.90
18335;DHT22;9293;49.524;10.964;2023-04-10T05:27:23;3.10;99.90
18335;DHT22;9293;49.524;10.964;2023-04-10T05:30:23;3.10;99.90
18335;DHT22;9293;49.524;10.964;2023-04-10T05:32:52;3.10;99.90
18335;DHT22;9293;49.524;10.964;2023-04-10T05:35:40;3.10;99.90
18335;DHT22;9293;49.524;10.964;2023-04-10T05:38:30;3.20;99.90
18335;DHT22;9293;49.524;10.964;2023-04-10T05:41:24;3.30;99.90
18335;DHT22;9293;49.524;10.964;2023-04-10T05:44:14;3.50;99.90
18335;DHT22;9293;49.524;10.964;2023-04-10T05:47:02;3.60;99.90
18335;DHT22;9293;49.524;10.964;2023-04-10T05:49:36;3.80;99.90
18335;DHT22;9293;49.524;10.964;2023-04-10T05:52:21;3.90;99.90
18335;DHT22;9293;49.524;10.964;2023-04-10T05:54:58;4.10;99.90
18335;DHT22;9293;49.524;10.964;2023-04-10T05:57:49;4.20;99.90
18335;DHT22;9293;49.524;10.964;2023-04-10T06:00:41;4.40;99.90
18335;DHT22;9293;49.524;10.964;2023-04-10T06:03:33;4.50;99.90
18335;DHT22;9293;49.524;10.964;2023-04-10T06:06:01;4.70;99.90
18335;DHT22;9293;49.524;10.964;2023-04-10T06:08:31;5.00;99.90
18335;DHT22;9293;49.524;10.964;2023-04-10T06:10:59;5.40;99.90
18335;DHT22;9293;49.524;10.964;2023-04-10T06:13:29;5.80;99.90
18335;DHT22;9293;49.524;10.964;2023-04-10T06:15:58;6.10;99.90
18335;DHT22;9293;49.524;10.964;2023-04-10T06:18:28;6.50;99.90
18335;DHT22;9293;49.524;10.964;2023-04-10T06:20:56;6.80;99.90
18335;DHT22;9293;49.524;10.964;2023-04-10T06:23:27;7.30;99.90
18335;DHT22;9293;49.524;10.964;2023-04-10T06:25:55;7.50;99.90
18335;DHT22;9293;49.524;10.964;2023-04-10T06:28:23;7.80;99.90
18335;DHT22;9293;49.524;10.964;2023-04-10T06:30:55;8.20;99.90
18335;DHT22;9293;49.524;10.964;2023-04-10T06:33:30;8.70;99.90
18335;DHT22;9293;49.524;10.964;2023-04-10T06:36:08;9.20;99.90
18335;DHT22;9293;49.524;10.964;2023-04-10T06:38:46;9.50;99.90
18335;DHT22;9293;49.524;10.964;2023-04-10T06:41:14;9.80;99.90
18335;DHT22;9293;49.524;10.964;2023-04-10T06:43:42;9.90;99.90
18335;DHT22;9293;49.524;10.964;2023-04-10T06:46:10;10.20;99.90
18335;DHT22;9293;49.524;10.964;2023-04-10T06:48:39;10.70;99.90
18335;DHT22;9293;49.524;10.964;2023-04-10T06:51:07;11.20;99.90
18335;DHT22;9293;49.524;10.964;2023-04-10T06:53:35;11.60;99.90
18335;DHT22;9293;49.524;10.964;2023-04-10T06:56:04;11.60;99.90
18335;DHT22;9293;49.524;10.964;2023-04-10T06:58:32;11.60;99.90
18335;DHT22;9293;49.524;10.964;2023-04-10T07:01:01;11.60;99.90
18335;DHT22;9293;49.524;10.964;2023-04-10T07:03:31;11.60;99.90
18335;DHT22;9293;49.524;10.964;2023-04-10T07:05:59;11.70;99.90
18335;DHT22;9293;49.524;10.964;2023-04-10T07:08:29;12.10;99.90
18335;DHT22;9293;49.524;10.964;2023-04-10T07:10:57;12.40;99.90
18335;DHT22;9293;49.524;10.964;2023-04-10T07:13:26;12.70;99.90
18335;DHT22;9293;49.524;10.964;2023-04-10T07:15:54;13.00;99.90
18335;DHT22;9293;49.524;10.964;2023-04-10T07:18:22;13.10;99.90
18335;DHT22;9293;49.524;10.964;2023-04-10T07:20:50;13.20;99.90
18335;DHT22;9293;49.524;10.964;2023-04-10T07:23:18;13.20;99.90
18335;DHT22;9293;49.524;10.964;2023-04-10T07:25:47;13.30;99.90
18335;DHT22;9293;49.524;10.964;2023-04-10T07:28:15;13.50;99.90
18335;DHT22;9293;49.524;10.964;2023-04-10T07:30:43;13.90;99.90
18335;DHT22;9293;49.524;10.964;2023-04-10T07:33:11;14.00;99.90
18335;DHT22;9293;49.524;10.964;2023-04-10T07:35:40;14.30;99.90
18335;DHT22;9293;49.524;10.964;2023-04-10T07:38:09;14.30;99.90
18335;DHT22;9293;49.524;10.964;2023-04-10T07:40:38;14.60;99.90
18335;DHT22;9293;49.524;10.964;2023-04-10T07:43:06;14.80;99.90
18335;DHT22;9293;49.524;10.964;2023-04-10T07:45:34;14.90;99.90
18335;DHT22;9293;49.524;10.964;2023-04-10T07:48:02;15.30;99.90
18335;DHT22;9293;49.524;10.964;2023-04-10T07:50:31;15.50;99.90
18335;DHT22;9293;49.524;10.964;2023-04-10T07:52:59;15.90;99.90
18335;DHT22;9293;49.524;10.964;2023-04-10T07:55:30;16.30;99.90
18335;DHT22;9293;49.524;10.964;2023-04-10T07:57:58;16.30;99.90
18335;DHT22;9293;49.524;10.964;2023-04-10T08:00:27;16.10;99.90
18335;DHT22;9293;49.524;10.964;2023-04-10T08:02:55;16.20;99.90
18335;DHT22;9293;49.524;10.964;2023-04-10T08:05:27;16.10;99.90
18335;DHT22;9293;49.524;10.964;2023-04-10T08:07:59;15.90;99.90
18335;DHT22;9293;49.524;10.964;2023-04-10T08:10:27;16.50;99.90
18335;DHT22;9293;49.524;10.964;2023-04-10T08:12:56;16.90;99.90
18335;DHT22;9293;49.524;10.964;2023-04-10T08:15:27;17.20;99.90
18335;DHT22;9293;49.524;10.964;2023-04-10T08:17:55;17.20;99.90
18335;DHT22;9293;49.524;10.964;2023-04-10T08:20:23;17.20;99.90
18335;DHT22;9293;49.524;10.964;2023-04-10T08:27:09;17.40;99.90
18335;DHT22;9293;49.524;10.964;2023-04-10T08:29:37;17.00;99.90
18335;DHT22;9293;49.524;10.964;2023-04-10T08:32:05;16.70;99.90
18335;DHT22;9293;49.524;10.964;2023-04-10T08:34:33;16.70;99.90
18335;DHT22;9293;49.524;10.964;2023-04-10T08:37:08;16.50;99.90
18335;DHT22;9293;49.524;10.964;2023-04-10T08:39:38;16.30;99.90
18335;DHT22;9293;49.524;10.964;2023-04-10T08:42:07;16.70;99.90
18335;DHT22;9293;49.524;10.964;2023-04-10T08:44:35;17.30;99.90
18335;DHT22;9293;49.524;10.964;2023-04-10T08:47:04;18.00;99.90
18335;DHT22;9293;49.524;10.964;2023-04-10T08:49:39;18.50;99.90
18335;DHT22;9293;49.524;10.964;2023-04-10T08:52:08;18.40;99.90
18335;DHT22;9293;49.524;10.964;2023-04-10T08:54:42;17.80;99.90
18335;DHT22;9293;49.524;10.964;2023-04-10T08:57:13;17.70;99.90
18335;DHT22;9293;49.524;10.964;2023-04-10T08:59:46;17.30;99.90
18335;DHT22;9293;49.524;10.964;2023-04-10T09:02:16;17.10;99.90
18335;DHT22;9293;49.524;10.964;2023-04-10T09:04:49;17.10;99.90
18335;DHT22;9293;49.524;10.964;2023-04-10T09:07:24;16.80;99.90
18335;DHT22;9293;49.524;10.964;2023-04-10T09:09:56;16.90;99.90
18335;DHT22;9293;49.524;10.964;2023-04-10T09:12:24;17.20;99.90
18335;DHT22;9293;49.524;10.964;2023-04-10T09:14:53;17.30;99.90
18335;DHT22;9293;49.524;10.964;2023-04-10T09:17:23;17.50;99.90
18335;DHT22;9293;49.524;10.964;2023-04-10T09:19:52;17.20;99.90
18335;DHT22;9293;49.524;10.964;2023-04-10T09:22:30;17.20;99.90
18335;DHT22;9293;49.524;10.964;2023-04-10T09:24:59;17.40;99.90
18335;DHT22;9293;49.524;10.964;2023-04-10T09:29:58;17.10;99.90
18335;DHT22;9293;49.524;10.964;2023-04-10T09:35:03;17.50;99.90
18335;DHT22;9293;49.524;10.964;2023-04-10T09:37:33;17.70;99.90
18335;DHT22;9293;49.524;10.964;2023-04-10T09:40:02;17.60;99.90
18335;DHT22;9293;49.524;10.964;2023-04-10T09:42:34;17.50;99.90
18335;DHT22;9293;49.524;10.964;2023-04-10T09:45:04;17.60;99.90
18335;DHT22;9293;49.524;10.964;2023-04-10T09:47:32;17.40;99.90
18335;DHT22;9293;49.524;10.964;2023-04-10T09:50:01;17.40;99.90
18335;DHT22;9293;49.524;10.964;2023-04-10T09:52:30;17.20;99.90
18335;DHT22;9293;49.524;10.964;2023-04-10T09:54:59;17.30;99.90
18335;DHT22;9293;49.524;10.964;2023-04-10T09:57:28;17.40;99.90
18335;DHT22;9293;49.524;10.964;2023-04-10T09:59:58;17.40;99.90
18335;DHT22;9293;49.524;10.964;2023-04-10T10:02:36;17.30;99.90
18335;DHT22;9293;49.524;10.964;2023-04-10T10:05:09;17.40;99.90
18335;DHT22;9293;49.524;10.964;2023-04-10T10:07:37;17.50;99.90
18335;DHT22;9293;49.524;10.964;2023-04-10T10:10:06;17.50;99.90
18335;DHT22;9293;49.524;10.964;2023-04-10T10:15:14;17.40;99.90
18335;DHT22;9293;49.524;10.964;2023-04-10T10:17:49;17.40;99.90
18335;DHT22;9293;49.524;10.964;2023-04-10T10:20:21;17.40;99.90
18335;DHT22;9293;49.524;10.964;2023-04-10T10:22:50;17.30;99.90
18335;DHT22;9293;49.524;10.964;2023-04-10T10:25:19;17.40;99.90
18335;DHT22;9293;49.524;10.964;2023-04-10T10:27:48;17.50;99.90
18335;DHT22;9293;49.524;10.964;2023-04-10T10:30:17;17.70;99.90
18335;DHT22;9293;49.524;10.964;2023-04-10T10:32:57;18.10;99.90
18335;DHT22;9293;49.524;10.964;2023-04-10T10:35:25;18.00;99.90
18335;DHT22;9293;49.524;10.964;2023-04-10T10:38:13;17.90;99.90
18335;DHT22;9293;49.524;10.964;2023-04-10T10:40:51;18.00;99.90
18335;DHT22;9293;49.524;10.964;2023-04-10T10:43:41;18.30;99.90
18335;DHT22;9293;49.524;10.964;2023-04-10T10:46:23;18.40;99.90
18335;DHT22;9293;49.524;10.964;2023-04-10T10:48:56;18.60;99.90
18335;DHT22;9293;49.524;10.964;2023-04-10T10:54:27;18.70;99.80
18335;DHT22;9293;49.524;10.964;2023-04-10T10:56:55;18.60;99.70
18335;DHT22;9293;49.524;10.964;2023-04-10T11:02:14;18.50;99.00
18335;DHT22;9293;49.524;10.964;2023-04-10T11:04:44;18.30;98.20
18335;DHT22;9293;49.524;10.964;2023-04-10T11:07:13;18.40;97.80
18335;DHT22;9293;49.524;10.964;2023-04-10T11:09:53;18.50;97.80
18335;DHT22;9293;49.524;10.964;2023-04-10T11:12:26;18.50;98.20
18335;DHT22;9293;49.524;10.964;2023-04-10T11:14:57;18.60;97.80
18335;DHT22;9293;49.524;10.964;2023-04-10T11:20:13;18.90;96.90
18335;DHT22;9293;49.524;10.964;2023-04-10T11:25:49;18.60;97.50
18335;DHT22;9293;49.524;10.964;2023-04-10T11:31:16;18.60;97.20
18335;DHT22;9293;49.524;10.964;2023-04-10T11:33:59;18.70;98.20
18335;DHT22;9293;49.524;10.964;2023-04-10T11:36:27;18.80;95.90
18335;DHT22;9293;49.524;10.964;2023-04-10T11:38:56;19.00;96.20
18335;DHT22;9293;49.524;10.964;2023-04-10T11:41:25;19.30;95.50
18335;DHT22;9293;49.524;10.964;2023-04-10T11:43:54;19.60;95.10
18335;DHT22;9293;49.524;10.964;2023-04-10T11:46:23;19.60;94.70
18335;DHT22;9293;49.524;10.964;2023-04-10T11:48:52;19.30;94.50
18335;DHT22;9293;49.524;10.964;2023-04-10T11:51:20;19.10;94.30
18335;DHT22;9293;49.524;10.964;2023-04-10T11:53:48;19.00;94.50
18335;DHT22;9293;49.524;10.964;2023-04-10T11:56:23;19.10;94.20
18335;DHT22;9293;49.524;10.964;2023-04-10T11:58:51;19.10;94.50
18335;DHT22;9293;49.524;10.964;2023-04-10T12:01:25;19.00;93.80
18335;DHT22;9293;49.524;10.964;2023-04-10T12:03:53;18.70;93.70
18335;DHT22;9293;49.524;10.964;2023-04-10T12:06:23;19.00;95.60
18335;DHT22;9293;49.524;10.964;2023-04-10T12:08:51;19.00;93.70
18335;DHT22;9293;49.524;10.964;2023-04-10T12:11:20;18.60;94.40
18335;DHT22;9293;49.524;10.964;2023-04-10T12:13:53;18.50;94.30
18335;DHT22;9293;49.524;10.964;2023-04-10T12:16:21;18.60;93.40
18335;DHT22;9293;49.524;10.964;2023-04-10T12:18:49;18.50;94.40
18335;DHT22;9293;49.524;10.964;2023-04-10T12:21:19;18.50;93.50
18335;DHT22;9293;49.524;10.964;2023-04-10T12:23:48;18.50;93.80
18335;DHT22;9293;49.524;10.964;2023-04-10T12:26:17;18.30;94.20
18335;DHT22;9293;49.524;10.964;2023-04-10T12:28:55;18.30;93.10
18335;DHT22;9293;49.524;10.964;2023-04-10T12:31:31;18.30;94.20
18335;DHT22;9293;49.524;10.964;2023-04-10T12:34:00;18.30;94.50
18335;DHT22;9293;49.524;10.964;2023-04-10T12:36:29;18.10;93.50
18335;DHT22;9293;49.524;10.964;2023-04-10T12:39:02;18.10;94.20
18335;DHT22;9293;49.524;10.964;2023-04-10T12:41:31;18.20;93.40
18335;DHT22;9293;49.524;10.964;2023-04-10T12:44:10;18.20;93.80
18335;DHT22;9293;49.524;10.964;2023-04-10T12:46:42;18.20;94.60
18335;DHT22;9293;49.524;10.964;2023-04-10T12:49:12;18.30;94.60
18335;DHT22;9293;49.524;10.964;2023-04-10T12:51:44;18.30;93.30
18335;DHT22;9293;49.524;10.964;2023-04-10T12:54:35;18.30;93.10
18335;DHT22;9293;49.524;10.964;2023-04-10T12:57:01;18.50;93.70
18335;DHT22;9293;49.524;10.964;2023-04-10T12:59:33;18.60;92.90
18335;DHT22;9293;49.524;10.964;2023-04-10T13:02:01;18.40;92.60
18335;DHT22;9293;49.524;10.964;2023-04-10T13:04:29;18.30;93.00
18335;DHT22;9293;49.524;10.964;2023-04-10T13:06:59;18.30;92.10
18335;DHT22;9293;49.524;10.964;2023-04-10T13:09:28;18.30;92.00
18335;DHT22;9293;49.524;10.964;2023-04-10T13:11:56;18.30;92.80
18335;DHT22;9293;49.524;10.964;2023-04-10T13:14:25;18.40;93.70
18335;DHT22;9293;49.524;10.964;2023-04-10T13:16:54;18.30;92.80
18335;DHT22;9293;49.524;10.964;2023-04-10T13:19:22;18.30;93.40
18335;DHT22;9293;49.524;10.964;2023-04-10T13:21:50;18.40;93.50
18335;DHT22;9293;49.524;10.964;2023-04-10T13:24:18;18.40;92.70
18335;DHT22;9293;49.524;10.964;2023-04-10T13:26:46;18.50;92.80
18335;DHT22;9293;49.524;10.964;2023-04-10T13:29:15;18.50;93.20
18335;DHT22;9293;49.524;10.964;2023-04-10T13:31:43;18.40;92.50
18335;DHT22;9293;49.524;10.964;2023-04-10T13:34:11;18.40;93.20
18335;DHT22;9293;49.524;10.964;2023-04-10T13:36:39;18.50;92.90
18335;DHT22;9293;49.524;10.964;2023-04-10T13:39:08;18.60;92.90
18335;DHT22;9293;49.524;10.964;2023-04-10T13:41:36;18.60;92.70
18335;DHT22;9293;49.524;10.964;2023-04-10T13:44:04;18.60;92.40
18335;DHT22;9293;49.524;10.964;2023-04-10T13:46:32;18.80;93.20
18335;DHT22;9293;49.524;10.964;2023-04-10T13:49:02;18.60;92.20
18335;DHT22;9293;49.524;10.964;2023-04-10T13:51:32;18.40;92.30
18335;DHT22;9293;49.524;10.964;2023-04-10T13:54:00;18.30;92.10
18335;DHT22;9293;49.524;10.964;2023-04-10T13:56:33;18.20;92.20
18335;DHT22;9293;49.524;10.964;2023-04-10T13:59:03;18.10;93.80
18335;DHT22;9293;49.524;10.964;2023-04-10T14:01:31;18.30;92.20
18335;DHT22;9293;49.524;10.964;2023-04-10T14:03:59;18.50;92.10
18335;DHT22;9293;49.524;10.964;2023-04-10T14:06:28;18.60;92.10
18335;DHT22;9293;49.524;10.964;2023-04-10T14:08:56;18.40;92.80
18335;DHT22;9293;49.524;10.964;2023-04-10T14:11:25;18.40;93.00
18335;DHT22;9293;49.524;10.964;2023-04-10T14:13:53;18.40;91.90
18335;DHT22;9293;49.524;10.964;2023-04-10T14:16:21;18.30;91.20
18335;DHT22;9293;49.524;10.964;2023-04-10T14:18:49;18.20;93.10
18335;DHT22;9293;49.524;10.964;2023-04-10T14:21:18;18.10;92.50
18335;DHT22;9293;49.524;10.964;2023-04-10T14:23:46;18.30;92.90
18335;DHT22;9293;49.524;10.964;2023-04-10T14:26:14;18.50;93.20
18335;DHT22;9293;49.524;10.964;2023-04-10T14:28:42;18.50;93.80
18335;DHT22;9293;49.524;10.964;2023-04-10T14:31:11;18.60;93.10
18335;DHT22;9293;49.524;10.964;2023-04-10T14:33:39;18.30;92.60
18335;DHT22;9293;49.524;10.964;2023-04-10T14:36:07;17.80;92.40
18335;DHT22;9293;49.524;10.964;2023-04-10T14:38:36;17.50;92.50
18335;DHT22;9293;49.524;10.964;2023-04-10T14:41:04;17.50;93.70
18335;DHT22;9293;49.524;10.964;2023-04-10T14:43:32;17.50;92.90
18335;DHT22;9293;49.524;10.964;2023-04-10T14:46:00;17.50;95.30
18335;DHT22;9293;49.524;10.964;2023-04-10T14:48:28;17.70;94.60
18335;DHT22;9293;49.524;10.964;2023-04-10T14:51:00;17.70;93.30
18335;DHT22;9293;49.524;10.964;2023-04-10T14:53:28;17.50;92.90
18335;DHT22;9293;49.524;10.964;2023-04-10T14:55:57;17.60;93.80
18335;DHT22;9293;49.524;10.964;2023-04-10T14:58:25;17.60;93.10
18335;DHT22;9293;49.524;10.964;2023-04-10T15:00:54;17.50;92.40
18335;DHT22;9293;49.524;10.964;2023-04-10T15:03:25;17.30;93.50
18335;DHT22;9293;49.524;10.964;2023-04-10T15:06:00;17.20;93.50
18335;DHT22;9293;49.524;10.964;2023-04-10T15:08:29;17.20;94.20
18335;DHT22;9293;49.524;10.964;2023-04-10T15:10:57;17.20;93.30
18335;DHT22;9293;49.524;10.964;2023-04-10T15:13:40;17.00;94.00
18335;DHT22;9293;49.524;10.964;2023-04-10T15:16:14;17.00;94.10
18335;DHT22;9293;49.524;10.964;2023-04-10T15:18:46;17.00;93.90
18335;DHT22;9293;49.524;10.964;2023-04-10T15:21:21;17.00;94.10
18335;DHT22;9293;49.524;10.964;2023-04-10T15:23:54;17.00;93.80
18335;DHT22;9293;49.524;10.964;2023-04-10T15:26:48;17.00;93.60
18335;DHT22;9293;49.524;10.964;2023-04-10T15:29:38;17.00;93.80
18335;DHT22;9293;49.524;10.964;2023-04-10T15:32:07;17.10;94.10
18335;DHT22;9293;49.524;10.964;2023-04-10T15:34:42;17.00;95.00
18335;DHT22;9293;49.524;10.964;2023-04-10T15:37:11;16.90;94.40
18335;DHT22;9293;49.524;10.964;2023-04-10T15:39:41;16.90;94.60
18335;DHT22;9293;49.524;10.964;2023-04-10T15:42:14;16.80;94.40
18335;DHT22;9293;49.524;10.964;2023-04-10T15:44:49;16.70;94.60
18335;DHT22;9293;49.524;10.964;2023-04-10T15:47:18;16.60;94.30
18335;DHT22;9293;49.524;10.964;2023-04-10T15:49:52;16.50;95.10
18335;DHT22;9293;49.524;10.964;2023-04-10T15:52:47;16.50;94.30
18335;DHT22;9293;49.524;10.964;2023-04-10T15:55:16;16.60;94.80
18335;DHT22;9293;49.524;10.964;2023-04-10T15:57:48;16.50;94.70
18335;DHT22;9293;49.524;10.964;2023-04-10T16:00:18;16.40;95.50
18335;DHT22;9293;49.524;10.964;2023-04-10T16:02:48;16.30;95.50
18335;DHT22;9293;49.524;10.964;2023-04-10T16:05:19;16.30;95.80
18335;DHT22;9293;49.524;10.964;2023-04-10T16:07:51;16.20;95.60
18335;DHT22;9293;49.524;10.964;2023-04-10T16:10:21;16.10;95.80
18335;DHT22;9293;49.524;10.964;2023-04-10T16:12:49;16.00;96.50
18335;DHT22;9293;49.524;10.964;2023-04-10T16:15:18;15.90;95.60
18335;DHT22;9293;49.524;10.964;2023-04-10T16:17:47;15.90;95.60
18335;DHT22;9293;49.524;10.964;2023-04-10T16:20:16;15.80;95.90
18335;DHT22;9293;49.524;10.964;2023-04-10T16:22:44;15.80;96.10
18335;DHT22;9293;49.524;10.964;2023-04-10T16:25:12;15.80;97.50
18335;DHT22;9293;49.524;10.964;2023-04-10T16:27:42;15.80;96.50
18335;DHT22;9293;49.524;10.964;2023-04-10T16:30:10;15.70;96.40
18335;DHT22;9293;49.524;10.964;2023-04-10T16:32:38;15.70;96.80
18335;DHT22;9293;49.524;10.964;2023-04-10T16:35:06;15.70;97.70
18335;DHT22;9293;49.524;10.964;2023-04-10T16:37:35;15.70;97.10
18335;DHT22;9293;49.524;10.964;2023-04-10T16:40:03;15.60;97.30
18335;DHT22;9293;49.524;10.964;2023-04-10T16:42:31;15.50;97.10
18335;DHT22;9293;49.524;10.964;2023-04-10T16:45:00;15.50;99.10